^^
Station Historical Data
Daily Summary for January 21, 2017 Units:  Both    English   Metric
« Previous Day
Next Day »
Daily Weekly Monthly Yearly Custom
  High: Low: Average:
Temperature: 91.8 °F /  33.2 °C 67.6 °F /  19.8 °C 75.9 °F /  24.4 °C
Dew Point: 58.5 °F /  14.7 °C 32.5 °F /  0.3 °C 46.9 °F /  8.3 °C
Humidity: 64% 20% 38%
Wind Speed: 14.1mph /  22.7km/h - 2.7mph /  4.3km/h
Wind Gust: 20.0mph /  32.2km/h - -
Wind- - SSE
Pressure: 29.74 in /  1007 hPa 29.58 in /  1001.6 hPa -
Precipitation: 0.04 in /  1.02 mm    
Historical Graphs
 
 
Tabular Data for January 21, 2017
Time Temperature Dew Point Pressure Wind Wind Speed Wind Gust Humidity Rainfall Rate (Hourly) solar Conditions
00:06 72.0 °F /  22.2 °C 51.3 °F /  10.7 °C 29.67in /  1004.6hPa West 0.9mph /  1.4km/h 2.0mph /  3.2km/h 48% 0.00in /  0mm 0.0 W/m2
00:12 71.8 °F /  22.1 °C 51.1 °F /  10.6 °C 29.67in /  1004.6hPa Calm   2.0mph /  3.2km/h 48% 0.00in /  0mm 0.0 W/m2
00:18 71.6 °F /  22 °C 50.9 °F /  10.5 °C 29.67in /  1004.6hPa Calm     48% 0.00in /  0mm 0.0 W/m2
00:24 71.4 °F /  21.9 °C 51.3 °F /  10.7 °C 29.67in /  1004.6hPa Calm     49% 0.00in /  0mm 0.0 W/m2
00:30 71.2 °F /  21.8 °C 51.1 °F /  10.6 °C 29.67in /  1004.6hPa Calm   2.0mph /  3.2km/h 49% 0.00in /  0mm 0.0 W/m2
00:36 71.2 °F /  21.8 °C 50.5 °F /  10.3 °C 29.67in /  1004.6hPa Calm   3.0mph /  4.8km/h 48% 0.00in /  0mm 0.0 W/m2
00:42 71.1 °F /  21.7 °C 50.4 °F /  10.2 °C 29.67in /  1004.6hPa South 2.9mph /  4.7km/h 4.0mph /  6.4km/h 48% 0.00in /  0mm 0.0 W/m2
00:48 71.1 °F /  21.7 °C 50.4 °F /  10.2 °C 29.67in /  1004.6hPa South 2.9mph /  4.7km/h 5.0mph /  8km/h 48% 0.00in /  0mm 0.0 W/m2
00:55 71.1 °F /  21.7 °C 49.8 °F /  9.9 °C 29.66in /  1004.3hPa SE 6.9mph /  11.1km/h 9.0mph /  14.5km/h 47% 0.00in /  0mm 0.0 W/m2
01:01 71.1 °F /  21.7 °C 49.8 °F /  9.9 °C 29.66in /  1004.3hPa Calm   4.0mph /  6.4km/h 47% 0.00in /  0mm 0.0 W/m2
01:07 71.1 °F /  21.7 °C 49.8 °F /  9.9 °C 29.66in /  1004.3hPa ESE 0.9mph /  1.4km/h 6.0mph /  9.7km/h 47% 0.00in /  0mm 0.0 W/m2
01:13 71.1 °F /  21.7 °C 50.4 °F /  10.2 °C 29.66in /  1004.3hPa ESE 2.9mph /  4.7km/h 5.0mph /  8km/h 48% 0.00in /  0mm 0.0 W/m2
01:19 71.1 °F /  21.7 °C 49.8 °F /  9.9 °C 29.66in /  1004.3hPa SSE 4.0mph /  6.4km/h 7.0mph /  11.3km/h 47% 0.00in /  0mm 0.0 W/m2
01:25 71.1 °F /  21.7 °C 49.3 °F /  9.6 °C 29.66in /  1004.3hPa SSE 4.0mph /  6.4km/h 10.0mph /  16.1km/h 46% 0.00in /  0mm 0.0 W/m2
01:31 71.1 °F /  21.7 °C 48.6 °F /  9.2 °C 29.66in /  1004.3hPa SSE 8.1mph /  13km/h 9.0mph /  14.5km/h 45% 0.00in /  0mm 0.0 W/m2
01:37 71.2 °F /  21.8 °C 48.7 °F /  9.3 °C 29.66in /  1004.3hPa SE 4.0mph /  6.4km/h 10.0mph /  16.1km/h 45% 0.00in /  0mm 0.0 W/m2
01:44 71.2 °F /  21.8 °C 48.2 °F /  9 °C 29.66in /  1004.3hPa SE 6.9mph /  11.1km/h 11.0mph /  17.7km/h 44% 0.00in /  0mm 0.0 W/m2
01:50 71.2 °F /  21.8 °C 47.7 °F /  8.7 °C 29.65in /  1003.9hPa East 0.9mph /  1.4km/h 11.0mph /  17.7km/h 43% 0.00in /  0mm 0.0 W/m2
01:56 71.1 °F /  21.7 °C 47.5 °F /  8.6 °C 29.65in /  1003.9hPa SE 4.0mph /  6.4km/h 6.0mph /  9.7km/h 43% 0.00in /  0mm 0.0 W/m2
02:02 71.1 °F /  21.7 °C 47.5 °F /  8.6 °C 29.65in /  1003.9hPa SSE 4.0mph /  6.4km/h 8.0mph /  12.9km/h 43% 0.00in /  0mm 0.0 W/m2
02:08 71.1 °F /  21.7 °C 47.5 °F /  8.6 °C 29.66in /  1004.3hPa SSE 8.1mph /  13km/h 9.0mph /  14.5km/h 43% 0.00in /  0mm 0.0 W/m2
02:14 70.9 °F /  21.6 °C 46.6 °F /  8.1 °C 29.65in /  1003.9hPa SW 0.9mph /  1.4km/h 10.0mph /  16.1km/h 42% 0.00in /  0mm 0.0 W/m2
02:20 70.9 °F /  21.6 °C 46.6 °F /  8.1 °C 29.66in /  1004.3hPa South 6.0mph /  9.7km/h 6.0mph /  9.7km/h 42% 0.00in /  0mm 0.0 W/m2
02:26 70.9 °F /  21.6 °C 46.0 °F /  7.8 °C 29.66in /  1004.3hPa SSW 2.0mph /  3.2km/h 4.0mph /  6.4km/h 41% 0.00in /  0mm 0.0 W/m2
02:32 70.9 °F /  21.6 °C 45.3 °F /  7.4 °C 29.65in /  1003.9hPa Calm   8.0mph /  12.9km/h 40% 0.00in /  0mm 0.0 W/m2
02:38 70.9 °F /  21.6 °C 46.0 °F /  7.8 °C 29.65in /  1003.9hPa South 0.9mph /  1.4km/h 7.0mph /  11.3km/h 41% 0.00in /  0mm 0.0 W/m2
02:44 70.9 °F /  21.6 °C 45.3 °F /  7.4 °C 29.65in /  1003.9hPa WSW 0.9mph /  1.4km/h 3.0mph /  4.8km/h 40% 0.00in /  0mm 0.0 W/m2
02:50 70.9 °F /  21.6 °C 45.3 °F /  7.4 °C 29.65in /  1003.9hPa SE 6.0mph /  9.7km/h 9.0mph /  14.5km/h 40% 0.00in /  0mm 0.0 W/m2
02:56 70.7 °F /  21.5 °C 45.1 °F /  7.3 °C 29.65in /  1003.9hPa ESE 4.9mph /  7.9km/h 9.0mph /  14.5km/h 40% 0.00in /  0mm 0.0 W/m2
03:02 70.5 °F /  21.4 °C 45.0 °F /  7.2 °C 29.65in /  1003.9hPa SW 0.9mph /  1.4km/h 8.0mph /  12.9km/h 40% 0.00in /  0mm 0.0 W/m2
03:08 70.5 °F /  21.4 °C 45.0 °F /  7.2 °C 29.65in /  1003.9hPa SE 2.0mph /  3.2km/h 3.0mph /  4.8km/h 40% 0.00in /  0mm 0.0 W/m2
03:14 70.5 °F /  21.4 °C 44.4 °F /  6.9 °C 29.65in /  1003.9hPa South 2.9mph /  4.7km/h 6.0mph /  9.7km/h 39% 0.00in /  0mm 0.0 W/m2
03:20 70.5 °F /  21.4 °C 44.4 °F /  6.9 °C 29.65in /  1003.9hPa SSE 0.9mph /  1.4km/h 9.0mph /  14.5km/h 39% 0.00in /  0mm 0.0 W/m2
03:26 70.3 °F /  21.3 °C 44.2 °F /  6.8 °C 29.64in /  1003.6hPa SSE 2.9mph /  4.7km/h 6.0mph /  9.7km/h 39% 0.00in /  0mm 0.0 W/m2
03:32 70.3 °F /  21.3 °C 43.5 °F /  6.4 °C 29.64in /  1003.6hPa SSW 4.9mph /  7.9km/h 7.0mph /  11.3km/h 38% 0.00in /  0mm 0.0 W/m2
03:38 70.3 °F /  21.3 °C 42.8 °F /  6 °C 29.64in /  1003.6hPa Calm   8.0mph /  12.9km/h 37% 0.00in /  0mm 0.0 W/m2
03:44 70.3 °F /  21.3 °C 42.8 °F /  6 °C 29.64in /  1003.6hPa SSE 6.9mph /  11.1km/h 8.0mph /  12.9km/h 37% 0.00in /  0mm 0.0 W/m2
03:50 70.3 °F /  21.3 °C 42.8 °F /  6 °C 29.64in /  1003.6hPa SSE 6.9mph /  11.1km/h 12.0mph /  19.3km/h 37% 0.00in /  0mm 0.0 W/m2
03:56 70.2 °F /  21.2 °C 42.6 °F /  5.9 °C 29.64in /  1003.6hPa SSE 8.1mph /  13km/h 8.1mph /  13km/h 37% 0.00in /  0mm 0.0 W/m2
04:03 70.2 °F /  21.2 °C 42.6 °F /  5.9 °C 29.64in /  1003.6hPa ESE 0.9mph /  1.4km/h 7.0mph /  11.3km/h 37% 0.00in /  0mm 0.0 W/m2
04:09 70.0 °F /  21.1 °C 42.4 °F /  5.8 °C 29.64in /  1003.6hPa SE 4.9mph /  7.9km/h 10.0mph /  16.1km/h 37% 0.00in /  0mm 0.0 W/m2
04:15 70.0 °F /  21.1 °C 42.4 °F /  5.8 °C 29.64in /  1003.6hPa SE 0.9mph /  1.4km/h 7.0mph /  11.3km/h 37% 0.00in /  0mm 0.0 W/m2
04:21 69.8 °F /  21 °C 42.4 °F /  5.8 °C 29.64in /  1003.6hPa SE 2.9mph /  4.7km/h 12.0mph /  19.3km/h 37% 0.00in /  0mm 0.0 W/m2
04:27 69.6 °F /  20.9 °C 42.3 °F /  5.7 °C 29.64in /  1003.6hPa SSW 4.0mph /  6.4km/h 7.0mph /  11.3km/h 37% 0.00in /  0mm 0.0 W/m2
04:33 69.4 °F /  20.8 °C 42.1 °F /  5.6 °C 29.64in /  1003.6hPa East 4.9mph /  7.9km/h 7.0mph /  11.3km/h 37% 0.00in /  0mm 0.0 W/m2
04:39 69.4 °F /  20.8 °C 41.4 °F /  5.2 °C 29.64in /  1003.6hPa SSE 2.0mph /  3.2km/h 5.0mph /  8km/h 36% 0.00in /  0mm 0.0 W/m2
04:45 69.3 °F /  20.7 °C 41.2 °F /  5.1 °C 29.64in /  1003.6hPa SSW 4.0mph /  6.4km/h 4.0mph /  6.4km/h 36% 0.00in /  0mm 0.0 W/m2
04:51 69.1 °F /  20.6 °C 40.3 °F /  4.6 °C 29.64in /  1003.6hPa SW 2.0mph /  3.2km/h 6.0mph /  9.7km/h 35% 0.00in /  0mm 0.0 W/m2
04:57 69.1 °F /  20.6 °C 40.3 °F /  4.6 °C 29.64in /  1003.6hPa SSE 6.9mph /  11.1km/h 7.0mph /  11.3km/h 35% 0.00in /  0mm 0.0 W/m2
05:03 69.1 °F /  20.6 °C 39.6 °F /  4.2 °C 29.64in /  1003.6hPa SSE 2.0mph /  3.2km/h 8.0mph /  12.9km/h 34% 0.00in /  0mm 0.0 W/m2
05:09 69.1 °F /  20.6 °C 38.8 °F /  3.8 °C 29.64in /  1003.6hPa SSE 2.9mph /  4.7km/h 8.0mph /  12.9km/h 33% 0.00in /  0mm 0.0 W/m2
05:15 69.1 °F /  20.6 °C 38.8 °F /  3.8 °C 29.65in /  1003.9hPa SSE 4.0mph /  6.4km/h 6.0mph /  9.7km/h 33% 0.00in /  0mm 0.0 W/m2
05:21 69.1 °F /  20.6 °C 37.9 °F /  3.3 °C 29.65in /  1003.9hPa SW 2.0mph /  3.2km/h 7.0mph /  11.3km/h 32% 0.00in /  0mm 0.0 W/m2
05:27 69.3 °F /  20.7 °C 37.4 °F /  3 °C 29.65in /  1003.9hPa SE 4.0mph /  6.4km/h 8.0mph /  12.9km/h 31% 0.00in /  0mm 0.0 W/m2
05:33 69.3 °F /  20.7 °C 37.4 °F /  3 °C 29.65in /  1003.9hPa SE 0.9mph /  1.4km/h 10.0mph /  16.1km/h 31% 0.00in /  0mm 0.0 W/m2
05:39 69.3 °F /  20.7 °C 36.5 °F /  2.5 °C 29.65in /  1003.9hPa ESE 4.9mph /  7.9km/h 7.0mph /  11.3km/h 30% 0.00in /  0mm 0.0 W/m2
05:45 69.3 °F /  20.7 °C 36.5 °F /  2.5 °C 29.65in /  1003.9hPa SSE 4.9mph /  7.9km/h 9.0mph /  14.5km/h 30% 0.00in /  0mm 0.0 W/m2
05:51 69.3 °F /  20.7 °C 35.6 °F /  2 °C 29.65in /  1003.9hPa ESE 2.9mph /  4.7km/h 10.0mph /  16.1km/h 29% 0.00in /  0mm 0.0 W/m2
05:57 69.4 °F /  20.8 °C 35.8 °F /  2.1 °C 29.65in /  1003.9hPa WSW 2.0mph /  3.2km/h 8.0mph /  12.9km/h 29% 0.00in /  0mm 0.0 W/m2
06:03 69.4 °F /  20.8 °C 35.8 °F /  2.1 °C 29.65in /  1003.9hPa South 2.9mph /  4.7km/h 8.0mph /  12.9km/h 29% 0.00in /  0mm 0.0 W/m2
06:09 69.4 °F /  20.8 °C 35.8 °F /  2.1 °C 29.65in /  1003.9hPa SE 8.1mph /  13km/h 11.0mph /  17.7km/h 29% 0.00in /  0mm 0.0 W/m2
06:15 69.4 °F /  20.8 °C 34.9 °F /  1.6 °C 29.66in /  1004.3hPa South 2.0mph /  3.2km/h 9.0mph /  14.5km/h 28% 0.00in /  0mm 0.0 W/m2
06:21 69.4 °F /  20.8 °C 34.9 °F /  1.6 °C 29.66in /  1004.3hPa South 0.9mph /  1.4km/h 11.0mph /  17.7km/h 28% 0.00in /  0mm 0.0 W/m2
06:27 69.4 °F /  20.8 °C 34.9 °F /  1.6 °C 29.66in /  1004.3hPa SE 4.9mph /  7.9km/h 8.0mph /  12.9km/h 28% 0.00in /  0mm 0.0 W/m2
06:33 69.4 °F /  20.8 °C 34.0 °F /  1.1 °C 29.66in /  1004.3hPa SE 6.9mph /  11.1km/h 8.0mph /  12.9km/h 27% 0.00in /  0mm 7.0 W/m2
06:39 69.6 °F /  20.9 °C 34.2 °F /  1.2 °C 29.66in /  1004.3hPa SE 6.0mph /  9.7km/h 8.0mph /  12.9km/h 27% 0.00in /  0mm 12.0 W/m2
06:45 69.6 °F /  20.9 °C 34.2 °F /  1.2 °C 29.66in /  1004.3hPa South 0.9mph /  1.4km/h 13.0mph /  20.9km/h 27% 0.00in /  0mm 18.0 W/m2
06:51 69.6 °F /  20.9 °C 33.3 °F /  0.7 °C 29.66in /  1004.3hPa Calm   13.0mph /  20.9km/h 26% 0.00in /  0mm 18.0 W/m2
06:57 69.8 °F /  21 °C 33.4 °F /  0.8 °C 29.66in /  1004.3hPa Calm   8.0mph /  12.9km/h 26% 0.00in /  0mm 18.0 W/m2
07:03 70.0 °F /  21.1 °C 32.5 °F /  0.3 °C 29.67in /  1004.6hPa South 4.9mph /  7.9km/h 10.0mph /  16.1km/h 25% 0.00in /  0mm 18.0 W/m2
07:09 70.0 °F /  21.1 °C 32.5 °F /  0.3 °C 29.67in /  1004.6hPa SSW 2.9mph /  4.7km/h 8.0mph /  12.9km/h 25% 0.00in /  0mm 21.0 W/m2
07:15 70.2 °F /  21.2 °C 32.7 °F /  0.4 °C 29.67in /  1004.6hPa Calm   3.0mph /  4.8km/h 25% 0.00in /  0mm 23.0 W/m2
07:21 70.2 °F /  21.2 °C 32.7 °F /  0.4 °C 29.67in /  1004.6hPa Calm   3.0mph /  4.8km/h 25% 0.00in /  0mm 26.0 W/m2
07:27 70.0 °F /  21.1 °C 34.5 °F /  1.4 °C 29.68in /  1005hPa Calm     27% 0.00in /  0mm 25.0 W/m2
07:33 69.8 °F /  21 °C 35.2 °F /  1.8 °C 29.67in /  1004.6hPa Calm     28% 0.00in /  0mm 28.0 W/m2
07:39 69.4 °F /  20.8 °C 34.0 °F /  1.1 °C 29.68in /  1005hPa Calm   3.0mph /  4.8km/h 27% 0.00in /  0mm 47.0 W/m2
07:45 69.6 °F /  20.9 °C 35.1 °F /  1.7 °C 29.68in /  1005hPa Calm   2.0mph /  3.2km/h 28% 0.00in /  0mm 258.0 W/m2
07:51 70.0 °F /  21.1 °C 35.4 °F /  1.9 °C 29.68in /  1005hPa Calm   3.0mph /  4.8km/h 28% 0.00in /  0mm 348.0 W/m2
07:57 70.9 °F /  21.6 °C 36.1 °F /  2.3 °C 29.68in /  1005hPa Calm   1.0mph /  1.6km/h 28% 0.00in /  0mm 369.0 W/m2
08:03 71.8 °F /  22.1 °C 35.1 °F /  1.7 °C 29.67in /  1004.6hPa SSW 0.9mph /  1.4km/h 1.0mph /  1.6km/h 26% 0.00in /  0mm 274.0 W/m2
08:09 72.3 °F /  22.4 °C 36.5 °F /  2.5 °C 29.68in /  1005hPa Calm     27% 0.00in /  0mm 271.0 W/m2
08:15 73.0 °F /  22.8 °C 37.0 °F /  2.8 °C 29.68in /  1005hPa Calm   1.0mph /  1.6km/h 27% 0.00in /  0mm 237.0 W/m2
08:21 73.9 °F /  23.3 °C 38.8 °F /  3.8 °C 29.68in /  1005hPa Calm     28% 0.00in /  0mm 406.0 W/m2
08:27 74.7 °F /  23.7 °C 40.3 °F /  4.6 °C 29.68in /  1005hPa Calm   1.0mph /  1.6km/h 29% 0.00in /  0mm 541.0 W/m2
08:33 75.4 °F /  24.1 °C 39.0 °F /  3.9 °C 29.68in /  1005hPa Calm     27% 0.00in /  0mm 237.0 W/m2
08:39 76.1 °F /  24.5 °C 39.7 °F /  4.3 °C 29.68in /  1005hPa Calm   2.0mph /  3.2km/h 27% 0.00in /  0mm 564.0 W/m2
08:45 77.2 °F /  25.1 °C 41.5 °F /  5.3 °C 29.68in /  1005hPa North 0.9mph /  1.4km/h 4.0mph /  6.4km/h 28% 0.00in /  0mm 527.0 W/m2
08:51 78.4 °F /  25.8 °C 41.7 °F /  5.4 °C 29.67in /  1004.6hPa Calm   1.0mph /  1.6km/h 27% 0.00in /  0mm 534.0 W/m2
08:57 79.7 °F /  26.5 °C 43.7 °F /  6.5 °C 29.67in /  1004.6hPa ENE 0.9mph /  1.4km/h 5.0mph /  8km/h 28% 0.00in /  0mm 555.0 W/m2
09:03 80.8 °F /  27.1 °C 43.7 °F /  6.5 °C 29.68in /  1005hPa ESE 0.9mph /  1.4km/h 9.0mph /  14.5km/h 27% 0.00in /  0mm 577.0 W/m2
09:09 81.3 °F /  27.4 °C 44.1 °F /  6.7 °C 29.68in /  1005hPa NNE 2.0mph /  3.2km/h 8.0mph /  12.9km/h 27% 0.00in /  0mm 598.0 W/m2
09:15 81.9 °F /  27.7 °C 43.7 °F /  6.5 °C 29.68in /  1005hPa ESE 6.0mph /  9.7km/h 6.0mph /  9.7km/h 26% 0.00in /  0mm 617.0 W/m2
09:21 82.2 °F /  27.9 °C 43.9 °F /  6.6 °C 29.68in /  1005hPa NE 2.9mph /  4.7km/h 8.0mph /  12.9km/h 26% 0.00in /  0mm 640.0 W/m2
09:27 82.8 °F /  28.2 °C 44.4 °F /  6.9 °C 29.68in /  1005hPa East 2.0mph /  3.2km/h 7.0mph /  11.3km/h 26% 0.00in /  0mm 659.0 W/m2
09:33 83.3 °F /  28.5 °C 44.8 °F /  7.1 °C 29.67in /  1004.6hPa ESE 2.0mph /  3.2km/h 7.0mph /  11.3km/h 26% 0.00in /  0mm 682.0 W/m2
09:39 83.5 °F /  28.6 °C 45.0 °F /  7.2 °C 29.68in /  1005hPa NNE 2.0mph /  3.2km/h 7.0mph /  11.3km/h 26% 0.00in /  0mm 701.0 W/m2
09:45 84.0 °F /  28.9 °C 45.5 °F /  7.5 °C 29.67in /  1004.6hPa NE 2.9mph /  4.7km/h 8.0mph /  12.9km/h 26% 0.00in /  0mm 719.0 W/m2
09:51 84.4 °F /  29.1 °C 45.7 °F /  7.6 °C 29.67in /  1004.6hPa Calm   6.0mph /  9.7km/h 26% 0.00in /  0mm 738.0 W/m2
09:57 84.9 °F /  29.4 °C 46.2 °F /  7.9 °C 29.67in /  1004.6hPa NNE 6.0mph /  9.7km/h 8.0mph /  12.9km/h 26% 0.00in /  0mm 759.0 W/m2
10:03 85.1 °F /  29.5 °C 45.3 °F /  7.4 °C 29.67in /  1004.6hPa NE 2.9mph /  4.7km/h 10.0mph /  16.1km/h 25% 0.00in /  0mm 780.0 W/m2
10:09 85.5 °F /  29.7 °C 44.6 °F /  7 °C 29.67in /  1004.6hPa NNE 2.0mph /  3.2km/h 8.0mph /  12.9km/h 24% 0.00in /  0mm 798.0 W/m2
10:19 85.6 °F /  29.8 °C 44.8 °F /  7.1 °C 29.67in /  1004.6hPa NNE 2.9mph /  4.7km/h 8.0mph /  12.9km/h 24% 0.00in /  0mm 824.0 W/m2
10:27 85.8 °F /  29.9 °C 45.9 °F /  7.7 °C 29.68in /  1005hPa NNE 4.9mph /  7.9km/h 9.0mph /  14.5km/h 25% 0.00in /  0mm 849.0 W/m2
10:33 86.4 °F /  30.2 °C 45.3 °F /  7.4 °C 29.67in /  1004.6hPa ENE 14.1mph /  22.7km/h 14.1mph /  22.7km/h 24% 0.00in /  0mm 874.0 W/m2
10:39 86.4 °F /  30.2 °C 45.3 °F /  7.4 °C 29.68in /  1005hPa East 2.9mph /  4.7km/h 8.0mph /  12.9km/h 24% 0.00in /  0mm 911.0 W/m2
10:45 86.5 °F /  30.3 °C 46.6 °F /  8.1 °C 29.67in /  1004.6hPa NE 4.9mph /  7.9km/h 9.0mph /  14.5km/h 25% 0.00in /  0mm 933.0 W/m2
10:51 86.7 °F /  30.4 °C 45.7 °F /  7.6 °C 29.67in /  1004.6hPa NNE 4.0mph /  6.4km/h 14.0mph /  22.5km/h 24% 0.00in /  0mm 946.0 W/m2
10:57 86.5 °F /  30.3 °C 45.5 °F /  7.5 °C 29.67in /  1004.6hPa East 8.1mph /  13km/h 12.0mph /  19.3km/h 24% 0.00in /  0mm 1004.0 W/m2
11:03 86.5 °F /  30.3 °C 45.5 °F /  7.5 °C 29.67in /  1004.6hPa NNW 6.9mph /  11.1km/h 11.0mph /  17.7km/h 24% 0.00in /  0mm 1056.0 W/m2
11:09 87.1 °F /  30.6 °C 45.9 °F /  7.7 °C 29.67in /  1004.6hPa ENE 4.9mph /  7.9km/h 5.0mph /  8km/h 24% 0.00in /  0mm 1083.0 W/m2
11:15 87.3 °F /  30.7 °C 45.0 °F /  7.2 °C 29.67in /  1004.6hPa NNE 6.0mph /  9.7km/h 10.0mph /  16.1km/h 23% 0.00in /  0mm 1172.0 W/m2
11:21 87.4 °F /  30.8 °C 46.2 °F /  7.9 °C 29.67in /  1004.6hPa ESE 4.0mph /  6.4km/h 9.0mph /  14.5km/h 24% 0.00in /  0mm 1143.0 W/m2
11:33 86.7 °F /  30.4 °C 45.7 °F /  7.6 °C 29.67in /  1004.6hPa NE 4.9mph /  7.9km/h 6.0mph /  9.7km/h 24% 0.00in /  0mm 1164.0 W/m2
11:42 87.6 °F /  30.9 °C 45.3 °F /  7.4 °C 29.67in /  1004.6hPa North 4.9mph /  7.9km/h 15.0mph /  24.1km/h 23% 0.00in /  0mm 682.0 W/m2
11:50 87.1 °F /  30.6 °C 45.9 °F /  7.7 °C 29.67in /  1004.6hPa ENE 6.9mph /  11.1km/h 10.0mph /  16.1km/h 24% 0.00in /  0mm 858.0 W/m2
11:56 86.7 °F /  30.4 °C 45.7 °F /  7.6 °C 29.67in /  1004.6hPa NNE 4.0mph /  6.4km/h 8.0mph /  12.9km/h 24% 0.00in /  0mm 1208.0 W/m2
12:02 87.4 °F /  30.8 °C 45.1 °F /  7.3 °C 29.67in /  1004.6hPa NNW 6.9mph /  11.1km/h 9.0mph /  14.5km/h 23% 0.00in /  0mm 1213.0 W/m2
12:08 88.2 °F /  31.2 °C 44.6 °F /  7 °C 29.67in /  1004.6hPa Calm   9.0mph /  14.5km/h 22% 0.00in /  0mm 1102.0 W/m2
12:14 88.3 °F /  31.3 °C 45.9 °F /  7.7 °C 29.66in /  1004.3hPa Calm   3.0mph /  4.8km/h 23% 0.00in /  0mm 1167.0 W/m2
12:20 88.9 °F /  31.6 °C 43.9 °F /  6.6 °C 29.66in /  1004.3hPa East 2.9mph /  4.7km/h 10.0mph /  16.1km/h 21% 0.00in /  0mm 1241.0 W/m2
12:26 88.9 °F /  31.6 °C 43.9 °F /  6.6 °C 29.66in /  1004.3hPa NE 8.1mph /  13km/h 11.0mph /  17.7km/h 21% 0.00in /  0mm 202.0 W/m2
12:32 87.6 °F /  30.9 °C 44.1 °F /  6.7 °C 29.66in /  1004.3hPa SE 2.0mph /  3.2km/h 12.0mph /  19.3km/h 22% 0.00in /  0mm 213.0 W/m2
12:38 86.5 °F /  30.3 °C 43.2 °F /  6.2 °C 29.66in /  1004.3hPa NNE 2.0mph /  3.2km/h 6.0mph /  9.7km/h 22% 0.00in /  0mm 243.0 W/m2
12:44 86.4 °F /  30.2 °C 45.3 °F /  7.4 °C 29.66in /  1004.3hPa SE 2.0mph /  3.2km/h 6.0mph /  9.7km/h 24% 0.00in /  0mm 976.0 W/m2
12:50 87.3 °F /  30.7 °C 46.0 °F /  7.8 °C 29.65in /  1003.9hPa NW 4.9mph /  7.9km/h 5.0mph /  8km/h 24% 0.00in /  0mm 1285.0 W/m2
12:56 88.0 °F /  31.1 °C 45.5 °F /  7.5 °C 29.66in /  1004.3hPa North 6.9mph /  11.1km/h 11.0mph /  17.7km/h 23% 0.00in /  0mm 1262.0 W/m2
13:02 88.7 °F /  31.5 °C 46.2 °F /  7.9 °C 29.65in /  1003.9hPa NNE 2.9mph /  4.7km/h 14.0mph /  22.5km/h 23% 0.00in /  0mm 1223.0 W/m2
13:08 89.4 °F /  31.9 °C 45.5 °F /  7.5 °C 29.65in /  1003.9hPa East 2.9mph /  4.7km/h 9.0mph /  14.5km/h 22% 0.00in /  0mm 1192.0 W/m2
13:14 90.0 °F /  32.2 °C 43.5 °F /  6.4 °C 29.65in /  1003.9hPa NE 4.0mph /  6.4km/h 9.0mph /  14.5km/h 20% 0.00in /  0mm 1181.0 W/m2
13:20 90.7 °F /  32.6 °C 45.3 °F /  7.4 °C 29.65in /  1003.9hPa ENE 4.0mph /  6.4km/h 4.0mph /  6.4km/h 21% 0.00in /  0mm 1151.0 W/m2
13:26 90.9 °F /  32.7 °C 45.5 °F /  7.5 °C 29.65in /  1003.9hPa NE 4.0mph /  6.4km/h 7.0mph /  11.3km/h 21% 0.00in /  0mm 1172.0 W/m2
13:32 91.0 °F /  32.8 °C 45.7 °F /  7.6 °C 29.64in /  1003.6hPa East 4.0mph /  6.4km/h 7.0mph /  11.3km/h 21% 0.00in /  0mm 1188.0 W/m2
13:38 91.8 °F /  33.2 °C 45.0 °F /  7.2 °C 29.64in /  1003.6hPa East 2.0mph /  3.2km/h 8.0mph /  12.9km/h 20% 0.00in /  0mm 1153.0 W/m2
13:44 91.8 °F /  33.2 °C 45.0 °F /  7.2 °C 29.64in /  1003.6hPa ENE 6.0mph /  9.7km/h 12.0mph /  19.3km/h 20% 0.00in /  0mm 1201.0 W/m2
13:50 90.7 °F /  32.6 °C 44.1 °F /  6.7 °C 29.63in /  1003.3hPa NNW 2.9mph /  4.7km/h 9.0mph /  14.5km/h 20% 0.00in /  0mm 193.0 W/m2
13:56 89.1 °F /  31.7 °C 46.4 °F /  8 °C 29.64in /  1003.6hPa West 0.9mph /  1.4km/h 9.0mph /  14.5km/h 23% 0.00in /  0mm 178.0 W/m2
14:02 87.1 °F /  30.6 °C 48.0 °F /  8.9 °C 29.63in /  1003.3hPa West 0.9mph /  1.4km/h 10.0mph /  16.1km/h 26% 0.00in /  0mm 185.0 W/m2
14:08 86.2 °F /  30.1 °C 47.3 °F /  8.5 °C 29.64in /  1003.6hPa Calm   7.0mph /  11.3km/h 26% 0.00in /  0mm 195.0 W/m2
14:14 85.5 °F /  29.7 °C 46.6 °F /  8.1 °C 29.63in /  1003.3hPa Calm   11.0mph /  17.7km/h 26% 0.00in /  0mm 251.0 W/m2
14:21 85.3 °F /  29.6 °C 48.6 °F /  9.2 °C 29.63in /  1003.3hPa NNE 0.9mph /  1.4km/h 10.0mph /  16.1km/h 28% 0.00in /  0mm 786.0 W/m2
14:27 85.5 °F /  29.7 °C 48.6 °F /  9.2 °C 29.63in /  1003.3hPa Calm   5.0mph /  8km/h 28% 0.00in /  0mm 645.0 W/m2
14:33 86.5 °F /  30.3 °C 48.6 °F /  9.2 °C 29.62in /  1002.9hPa Calm   8.0mph /  12.9km/h 27% 0.00in /  0mm 1130.0 W/m2
14:39 88.3 °F /  31.3 °C 48.0 °F /  8.9 °C 29.62in /  1002.9hPa WNW 2.0mph /  3.2km/h 8.0mph /  12.9km/h 25% 0.00in /  0mm 1053.0 W/m2
14:45 89.8 °F /  32.1 °C 47.1 °F /  8.4 °C 29.62in /  1002.9hPa NW 2.0mph /  3.2km/h 8.0mph /  12.9km/h 23% 0.00in /  0mm 1028.0 W/m2
14:51 90.1 °F /  32.3 °C 47.3 °F /  8.5 °C 29.62in /  1002.9hPa WNW 2.0mph /  3.2km/h 9.0mph /  14.5km/h 23% 0.00in /  0mm 1058.0 W/m2
14:57 90.7 °F /  32.6 °C 46.6 °F /  8.1 °C 29.61in /  1002.6hPa NNW 6.9mph /  11.1km/h 9.0mph /  14.5km/h 22% 0.00in /  0mm 1025.0 W/m2
15:04 91.0 °F /  32.8 °C 46.9 °F /  8.3 °C 29.61in /  1002.6hPa West 2.0mph /  3.2km/h 11.0mph /  17.7km/h 22% 0.00in /  0mm 1023.0 W/m2
15:10 91.6 °F /  33.1 °C 47.3 °F /  8.5 °C 29.61in /  1002.6hPa WSW 2.0mph /  3.2km/h 7.0mph /  11.3km/h 22% 0.00in /  0mm 1030.0 W/m2
15:16 91.8 °F /  33.2 °C 47.5 °F /  8.6 °C 29.60in /  1002.3hPa WNW 4.9mph /  7.9km/h 9.0mph /  14.5km/h 22% 0.00in /  0mm 1004.0 W/m2
15:22 91.0 °F /  32.8 °C 48.0 °F /  8.9 °C 29.60in /  1002.3hPa SW 2.9mph /  4.7km/h 9.0mph /  14.5km/h 23% 0.00in /  0mm 969.0 W/m2
15:28 91.0 °F /  32.8 °C 46.9 °F /  8.3 °C 29.60in /  1002.3hPa WSW 2.9mph /  4.7km/h 10.0mph /  16.1km/h 22% 0.00in /  0mm 858.0 W/m2
15:34 91.4 °F /  33 °C 46.0 °F /  7.8 °C 29.59in /  1001.9hPa West 0.9mph /  1.4km/h 5.0mph /  8km/h 21% 0.00in /  0mm 1011.0 W/m2
15:40 91.6 °F /  33.1 °C 46.0 °F /  7.8 °C 29.59in /  1001.9hPa Calm   8.0mph /  12.9km/h 21% 0.00in /  0mm 459.0 W/m2
15:46 91.2 °F /  32.9 °C 47.1 °F /  8.4 °C 29.59in /  1001.9hPa West 6.9mph /  11.1km/h 7.0mph /  11.3km/h 22% 0.00in /  0mm 517.0 W/m2
15:52 90.9 °F /  32.7 °C 46.8 °F /  8.2 °C 29.59in /  1001.9hPa WNW 4.0mph /  6.4km/h 8.0mph /  12.9km/h 22% 0.00in /  0mm 640.0 W/m2
15:59 90.9 °F /  32.7 °C 46.8 °F /  8.2 °C 29.58in /  1001.6hPa NW 10.1mph /  16.3km/h 10.1mph /  16.3km/h 22% 0.00in /  0mm 1011.0 W/m2
16:05 91.0 °F /  32.8 °C 46.9 °F /  8.3 °C 29.58in /  1001.6hPa NW 4.0mph /  6.4km/h 10.0mph /  16.1km/h 22% 0.00in /  0mm 378.0 W/m2
16:11 90.3 °F /  32.4 °C 46.4 °F /  8 °C 29.59in /  1001.9hPa NE 0.9mph /  1.4km/h 12.0mph /  19.3km/h 22% 0.00in /  0mm 977.0 W/m2
16:17 89.8 °F /  32.1 °C 47.1 °F /  8.4 °C 29.58in /  1001.6hPa NE 0.9mph /  1.4km/h 5.0mph /  8km/h 23% 0.00in /  0mm 559.0 W/m2
16:23 89.6 °F /  32 °C 48.0 °F /  8.9 °C 29.58in /  1001.6hPa NNE 2.0mph /  3.2km/h 9.0mph /  14.5km/h 24% 0.00in /  0mm 207.0 W/m2
16:29 87.6 °F /  30.9 °C 50.5 °F /  10.3 °C 29.59in /  1001.9hPa NNE 4.9mph /  7.9km/h 16.0mph /  25.7km/h 28% 0.00in /  0mm 91.0 W/m2
16:35 85.1 °F /  29.5 °C 52.7 °F /  11.5 °C 29.61in /  1002.6hPa NNE 4.9mph /  7.9km/h 16.0mph /  25.7km/h 33% 0.00in /  0mm 90.0 W/m2
16:42 81.9 °F /  27.7 °C 53.8 °F /  12.1 °C 29.61in /  1002.6hPa NE 6.9mph /  11.1km/h 10.0mph /  16.1km/h 38% 0.00in /  0mm 100.0 W/m2
16:50 78.3 °F /  25.7 °C 54.5 °F /  12.5 °C 29.61in /  1002.6hPa NNE 6.9mph /  11.1km/h 20.0mph /  32.2km/h 44% 0.00in /  0mm 90.0 W/m2
16:56 75.7 °F /  24.3 °C 55.8 °F /  13.2 °C 29.61in /  1002.6hPa NE 10.1mph /  16.3km/h 10.1mph /  16.3km/h 50% 0.00in /  0mm 70.0 W/m2
17:02 73.8 °F /  23.2 °C 58.5 °F /  14.7 °C 29.62in /  1002.9hPa NE 8.1mph /  13km/h 12.0mph /  19.3km/h 59% 0.01in /  0.25mm 51.0 W/m2
17:08 72.1 °F /  22.3 °C 57.9 °F /  14.4 °C 29.62in /  1002.9hPa NE 2.0mph /  3.2km/h 5.0mph /  8km/h 61% 0.02in /  0.51mm 37.0 W/m2
17:14 71.1 °F /  21.7 °C 56.8 °F /  13.8 °C 29.62in /  1002.9hPa NNW 2.9mph /  4.7km/h 5.0mph /  8km/h 61% 0.03in /  0.76mm 26.0 W/m2
17:20 70.7 °F /  21.5 °C 56.7 °F /  13.7 °C 29.62in /  1002.9hPa West 6.0mph /  9.7km/h 6.0mph /  9.7km/h 61% 0.03in /  0.76mm 21.0 W/m2
17:27 70.5 °F /  21.4 °C 55.0 °F /  12.8 °C 29.62in /  1002.9hPa WNW 6.9mph /  11.1km/h 10.0mph /  16.1km/h 58% 0.03in /  0.76mm 18.0 W/m2
17:33 70.2 °F /  21.2 °C 54.7 °F /  12.6 °C 29.62in /  1002.9hPa WSW 8.1mph /  13km/h 10.0mph /  16.1km/h 58% 0.03in /  0.76mm 18.0 W/m2
17:39 69.8 °F /  21 °C 52.9 °F /  11.6 °C 29.61in /  1002.6hPa WSW 11.0mph /  17.7km/h 13.0mph /  20.9km/h 55% 0.03in /  0.76mm 21.0 W/m2
17:45 70.5 °F /  21.4 °C 53.6 °F /  12 °C 29.62in /  1002.9hPa West 2.9mph /  4.7km/h 10.0mph /  16.1km/h 55% 0.03in /  0.76mm 25.0 W/m2
17:51 69.6 °F /  20.9 °C 54.7 °F /  12.6 °C 29.63in /  1003.3hPa West 2.9mph /  4.7km/h 9.0mph /  14.5km/h 59% 0.03in /  0.76mm 18.0 W/m2
17:57 69.3 °F /  20.7 °C 54.9 °F /  12.7 °C 29.64in /  1003.6hPa SW 6.0mph /  9.7km/h 14.0mph /  22.5km/h 60% 0.02in /  0.51mm 14.0 W/m2
18:03 68.7 °F /  20.4 °C 54.7 °F /  12.6 °C 29.64in /  1003.6hPa WSW 4.9mph /  7.9km/h 7.0mph /  11.3km/h 61% 0.02in /  0.51mm 12.0 W/m2
18:12 68.7 °F /  20.4 °C 55.2 °F /  12.9 °C 29.65in /  1003.9hPa WSW 0.9mph /  1.4km/h 6.0mph /  9.7km/h 62% 0.00in /  0mm 12.0 W/m2
18:18 68.7 °F /  20.4 °C 54.7 °F /  12.6 °C 29.65in /  1003.9hPa SSW 0.9mph /  1.4km/h 6.0mph /  9.7km/h 61% 0.00in /  0mm 12.0 W/m2
18:24 68.7 °F /  20.4 °C 55.6 °F /  13.1 °C 29.66in /  1004.3hPa West 4.9mph /  7.9km/h 5.0mph /  8km/h 63% 0.00in /  0mm 12.0 W/m2
18:30 68.7 °F /  20.4 °C 56.1 °F /  13.4 °C 29.67in /  1004.6hPa SSW 2.0mph /  3.2km/h 7.0mph /  11.3km/h 64% 0.00in /  0mm 14.0 W/m2
18:36 68.5 °F /  20.3 °C 55.4 °F /  13 °C 29.67in /  1004.6hPa West 6.0mph /  9.7km/h 8.0mph /  12.9km/h 63% 0.00in /  0mm 14.0 W/m2
18:42 68.5 °F /  20.3 °C 55.4 °F /  13 °C 29.68in /  1005hPa South 4.9mph /  7.9km/h 5.0mph /  8km/h 63% 0.00in /  0mm 12.0 W/m2
18:48 68.5 °F /  20.3 °C 55.0 °F /  12.8 °C 29.67in /  1004.6hPa SSW 6.0mph /  9.7km/h 7.0mph /  11.3km/h 62% 0.00in /  0mm 14.0 W/m2
18:55 68.5 °F /  20.3 °C 55.0 °F /  12.8 °C 29.68in /  1005hPa SSW 6.9mph /  11.1km/h 9.0mph /  14.5km/h 62% 0.00in /  0mm 19.0 W/m2
19:01 68.7 °F /  20.4 °C 54.7 °F /  12.6 °C 29.68in /  1005hPa South 0.9mph /  1.4km/h 7.0mph /  11.3km/h 61% 0.00in /  0mm 23.0 W/m2
19:07 69.1 °F /  20.6 °C 54.7 °F /  12.6 °C 29.68in /  1005hPa SSW 8.9mph /  14.3km/h 11.0mph /  17.7km/h 60% 0.00in /  0mm 23.0 W/m2
19:13 69.4 °F /  20.8 °C 54.0 °F /  12.2 °C 29.68in /  1005hPa South 2.0mph /  3.2km/h 8.0mph /  12.9km/h 58% 0.00in /  0mm 21.0 W/m2
19:19 69.8 °F /  21 °C 54.0 °F /  12.2 °C 29.68in /  1005hPa SW 2.0mph /  3.2km/h 9.0mph /  14.5km/h 57% 0.00in /  0mm 19.0 W/m2
19:25 70.2 °F /  21.2 °C 53.2 °F /  11.8 °C 29.68in /  1005hPa SSW 2.9mph /  4.7km/h 7.0mph /  11.3km/h 55% 0.00in /  0mm 14.0 W/m2
19:31 70.5 °F /  21.4 °C 53.1 °F /  11.7 °C 29.68in /  1005hPa SSE 2.9mph /  4.7km/h 6.0mph /  9.7km/h 54% 0.00in /  0mm 11.0 W/m2
19:37 70.9 °F /  21.6 °C 53.4 °F /  11.9 °C 29.68in /  1005hPa SSE 4.0mph /  6.4km/h 8.0mph /  12.9km/h 54% 0.00in /  0mm 7.0 W/m2
19:44 71.1 °F /  21.7 °C 53.6 °F /  12 °C 29.68in /  1005hPa Calm   4.0mph /  6.4km/h 54% 0.01in /  0.25mm 0.0 W/m2
19:50 71.1 °F /  21.7 °C 53.1 °F /  11.7 °C 29.69in /  1005.3hPa SSE 0.9mph /  1.4km/h 4.0mph /  6.4km/h 53% 0.01in /  0.25mm 0.0 W/m2
19:56 71.1 °F /  21.7 °C 53.1 °F /  11.7 °C 29.69in /  1005.3hPa Calm   5.0mph /  8km/h 53% 0.01in /  0.25mm 0.0 W/m2
20:02 71.1 °F /  21.7 °C 53.1 °F /  11.7 °C 29.69in /  1005.3hPa Calm   2.0mph /  3.2km/h 53% 0.01in /  0.25mm 0.0 W/m2
20:08 71.1 °F /  21.7 °C 52.5 °F /  11.4 °C 29.70in /  1005.6hPa Calm   3.0mph /  4.8km/h 52% 0.01in /  0.25mm 0.0 W/m2
20:14 71.1 °F /  21.7 °C 51.4 °F /  10.8 °C 29.70in /  1005.6hPa Calm   3.0mph /  4.8km/h 50% 0.01in /  0.25mm 0.0 W/m2
20:21 71.2 °F /  21.8 °C 52.2 °F /  11.2 °C 29.70in /  1005.6hPa Calm   3.0mph /  4.8km/h 51% 0.01in /  0.25mm 0.0 W/m2
20:27 71.2 °F /  21.8 °C 51.6 °F /  10.9 °C 29.70in /  1005.6hPa Calm     50% 0.01in /  0.25mm 0.0 W/m2
20:33 71.2 °F /  21.8 °C 51.1 °F /  10.6 °C 29.70in /  1005.6hPa Calm   1.0mph /  1.6km/h 49% 0.01in /  0.25mm 0.0 W/m2
20:39 71.4 °F /  21.9 °C 51.8 °F /  11 °C 29.70in /  1005.6hPa SW 0.9mph /  1.4km/h 3.0mph /  4.8km/h 50% 0.00in /  0mm 0.0 W/m2
20:45 71.4 °F /  21.9 °C 51.3 °F /  10.7 °C 29.70in /  1005.6hPa WSW 0.9mph /  1.4km/h 1.0mph /  1.6km/h 49% 0.00in /  0mm 0.0 W/m2
20:51 71.4 °F /  21.9 °C 51.8 °F /  11 °C 29.70in /  1005.6hPa Calm   1.0mph /  1.6km/h 50% 0.00in /  0mm 0.0 W/m2
20:58 71.4 °F /  21.9 °C 52.3 °F /  11.3 °C 29.71in /  1006hPa WSW 2.0mph /  3.2km/h 2.0mph /  3.2km/h 51% 0.00in /  0mm 0.0 W/m2
21:04 71.4 °F /  21.9 °C 52.3 °F /  11.3 °C 29.71in /  1006hPa Calm     51% 0.00in /  0mm 0.0 W/m2
21:10 71.4 °F /  21.9 °C 52.9 °F /  11.6 °C 29.71in /  1006hPa Calm     52% 0.00in /  0mm 0.0 W/m2
21:16 71.2 °F /  21.8 °C 51.6 °F /  10.9 °C 29.72in /  1006.3hPa Calm   1.0mph /  1.6km/h 50% 0.00in /  0mm 0.0 W/m2
21:22 71.2 °F /  21.8 °C 51.6 °F /  10.9 °C 29.72in /  1006.3hPa Calm   1.0mph /  1.6km/h 50% 0.00in /  0mm 0.0 W/m2
21:28 71.4 °F /  21.9 °C 51.3 °F /  10.7 °C 29.72in /  1006.3hPa Calm   1.0mph /  1.6km/h 49% 0.00in /  0mm 0.0 W/m2
21:34 71.4 °F /  21.9 °C 52.3 °F /  11.3 °C 29.72in /  1006.3hPa WNW 4.0mph /  6.4km/h 7.0mph /  11.3km/h 51% 0.00in /  0mm 0.0 W/m2
21:40 71.2 °F /  21.8 °C 52.7 °F /  11.5 °C 29.72in /  1006.3hPa Calm   1.0mph /  1.6km/h 52% 0.00in /  0mm 0.0 W/m2
21:47 70.9 °F /  21.6 °C 53.4 °F /  11.9 °C 29.72in /  1006.3hPa North 2.0mph /  3.2km/h 2.0mph /  3.2km/h 54% 0.00in /  0mm 0.0 W/m2
21:53 70.5 °F /  21.4 °C 53.6 °F /  12 °C 29.72in /  1006.3hPa Calm   3.0mph /  4.8km/h 55% 0.00in /  0mm 0.0 W/m2
21:59 70.2 °F /  21.2 °C 53.2 °F /  11.8 °C 29.72in /  1006.3hPa Calm   1.0mph /  1.6km/h 55% 0.00in /  0mm 0.0 W/m2
22:05 70.0 °F /  21.1 °C 54.0 °F /  12.2 °C 29.73in /  1006.7hPa Calm     57% 0.00in /  0mm 0.0 W/m2
22:11 69.6 °F /  20.9 °C 54.7 °F /  12.6 °C 29.73in /  1006.7hPa ENE 2.0mph /  3.2km/h 3.0mph /  4.8km/h 59% 0.00in /  0mm 0.0 W/m2
22:17 69.4 °F /  20.8 °C 54.9 °F /  12.7 °C 29.73in /  1006.7hPa Calm   1.0mph /  1.6km/h 60% 0.00in /  0mm 0.0 W/m2
22:23 69.3 °F /  20.7 °C 55.8 °F /  13.2 °C 29.74in /  1007hPa Calm   2.0mph /  3.2km/h 62% 0.00in /  0mm 0.0 W/m2
22:29 69.1 °F /  20.6 °C 55.6 °F /  13.1 °C 29.73in /  1006.7hPa Calm     62% 0.00in /  0mm 0.0 W/m2
22:35 68.7 °F /  20.4 °C 55.6 °F /  13.1 °C 29.74in /  1007hPa Calm   1.0mph /  1.6km/h 63% 0.00in /  0mm 0.0 W/m2
22:42 68.4 °F /  20.2 °C 55.2 °F /  12.9 °C 29.74in /  1007hPa Calm   3.0mph /  4.8km/h 63% 0.00in /  0mm 0.0 W/m2
22:48 68.2 °F /  20.1 °C 55.6 °F /  13.1 °C 29.74in /  1007hPa Calm   1.0mph /  1.6km/h 64% 0.00in /  0mm 0.0 W/m2
22:54 68.0 °F /  20 °C 55.4 °F /  13 °C 29.74in /  1007hPa Calm     64% 0.00in /  0mm 0.0 W/m2
23:00 67.8 °F /  19.9 °C 54.7 °F /  12.6 °C 29.73in /  1006.7hPa Calm     63% 0.00in /  0mm 0.0 W/m2
23:06 67.8 °F /  19.9 °C 55.2 °F /  12.9 °C 29.73in /  1006.7hPa Calm     64% 0.00in /  0mm 0.0 W/m2
23:12 67.6 °F /  19.8 °C 54.7 °F /  12.6 °C 29.74in /  1007hPa Calm   1.0mph /  1.6km/h 63% 0.00in /  0mm 0.0 W/m2
23:18 67.8 °F /  19.9 °C 54.3 °F /  12.4 °C 29.74in /  1007hPa ESE 2.0mph /  3.2km/h 3.0mph /  4.8km/h 62% 0.00in /  0mm 0.0 W/m2
23:24 68.0 °F /  20 °C 54.5 °F /  12.5 °C 29.74in /  1007hPa ESE 2.9mph /  4.7km/h 4.0mph /  6.4km/h 62% 0.00in /  0mm 0.0 W/m2
23:30 68.4 °F /  20.2 °C 54.3 °F /  12.4 °C 29.74in /  1007hPa Calm   2.0mph /  3.2km/h 61% 0.00in /  0mm 0.0 W/m2
23:36 68.5 °F /  20.3 °C 55.0 °F /  12.8 °C 29.74in /  1007hPa Calm   2.0mph /  3.2km/h 62% 0.00in /  0mm 0.0 W/m2
23:42 68.5 °F /  20.3 °C 54.5 °F /  12.5 °C 29.74in /  1007hPa Calm     61% 0.00in /  0mm 0.0 W/m2
23:48 68.7 °F /  20.4 °C 54.7 °F /  12.6 °C 29.74in /  1007hPa Calm     61% 0.00in /  0mm 0.0 W/m2
23:55 68.7 °F /  20.4 °C 55.6 °F /  13.1 °C 29.73in /  1006.7hPa Calm     63% 0.00in /  0mm 0.0 W/m2
Olympia, Windhoek, Namibia
Compliments of Weather Underground - 3 mb